createdAt,value
2018-07-22T00:05:01.829Z,23.40
2018-07-22T00:10:05.949Z,23.30
2018-07-22T00:15:09.023Z,23.20
2018-07-22T00:20:12.134Z,23.10
2018-07-22T00:25:15.654Z,23.00
2018-07-22T00:30:18.710Z,23.00
2018-07-22T00:35:21.754Z,23.00
2018-07-22T00:40:24.794Z,22.90
2018-07-22T00:45:27.821Z,22.70
2018-07-22T00:50:30.863Z,22.60
2018-07-22T00:55:33.935Z,22.60
2018-07-22T01:00:36.961Z,22.60
2018-07-22T01:05:40.009Z,22.60
2018-07-22T01:10:43.493Z,22.60
2018-07-22T01:15:46.530Z,22.50
2018-07-22T01:25:52.527Z,22.40
2018-07-22T01:30:55.578Z,22.40
2018-07-22T01:35:58.590Z,22.40
2018-07-22T01:41:01.639Z,22.30
2018-07-22T01:46:04.679Z,22.20
2018-07-22T01:51:08.020Z,22.10
2018-07-22T01:56:11.067Z,22.10
2018-07-22T02:01:14.110Z,22.00
2018-07-22T02:06:17.177Z,21.90
2018-07-22T02:11:20.208Z,21.80
2018-07-22T02:16:23.278Z,21.70
2018-07-22T02:26:29.217Z,21.60
2018-07-22T02:31:32.238Z,21.50
2018-07-22T02:36:35.250Z,21.50
2018-07-22T02:41:38.269Z,21.50
2018-07-22T02:46:41.299Z,21.40
2018-07-22T02:51:44.352Z,21.20
2018-07-22T02:56:47.394Z,21.20
2018-07-22T03:01:50.432Z,21.20
2018-07-22T03:06:53.487Z,21.10
2018-07-22T03:11:56.537Z,21.10
2018-07-22T03:16:59.558Z,21.10
2018-07-22T03:22:02.574Z,21.10
2018-07-22T03:27:06.011Z,21.10
2018-07-22T03:32:09.138Z,21.00
2018-07-22T03:37:12.148Z,21.00
2018-07-22T03:42:15.195Z,21.10
2018-07-22T03:47:18.238Z,20.90
2018-07-22T03:52:21.275Z,20.90
2018-07-22T03:57:24.314Z,21.00
2018-07-22T04:02:27.342Z,21.10
2018-07-22T04:07:30.395Z,21.10
2018-07-22T04:12:33.628Z,21.20
2018-07-22T04:17:36.720Z,21.20
2018-07-22T04:22:39.739Z,21.30
2018-07-22T04:27:42.740Z,21.30
2018-07-22T04:32:45.834Z,21.40
2018-07-22T04:37:48.945Z,21.40
2018-07-22T04:42:52.267Z,21.50
2018-07-22T04:47:55.279Z,21.60
2018-07-22T04:52:58.315Z,21.60
2018-07-22T04:58:01.352Z,21.70
2018-07-22T05:03:04.382Z,21.80
2018-07-22T05:08:07.429Z,22.00
2018-07-22T05:13:10.460Z,22.00
2018-07-22T05:18:13.497Z,22.10
2018-07-22T05:23:16.567Z,22.20
2018-07-22T05:28:19.676Z,22.30
2018-07-22T05:33:22.730Z,22.40
2018-07-22T05:38:25.754Z,22.50
2018-07-22T05:43:28.938Z,22.60
2018-07-22T05:48:31.990Z,22.70
2018-07-22T05:53:35.093Z,22.80
2018-07-22T05:58:38.149Z,22.90
2018-07-22T06:03:41.153Z,23.10
2018-07-22T06:08:44.162Z,23.20
2018-07-22T06:13:47.201Z,23.20
2018-07-22T06:18:50.205Z,23.30
2018-07-22T06:23:53.355Z,23.30
2018-07-22T06:28:56.458Z,23.40
2018-07-22T06:39:02.456Z,23.40
2018-07-22T06:44:05.582Z,23.60
2018-07-22T06:49:08.845Z,23.80
2018-07-22T06:54:11.874Z,24.00
2018-07-22T06:59:14.955Z,23.90
2018-07-22T07:04:18.259Z,23.90
2018-07-22T07:09:21.307Z,23.90
2018-07-22T07:14:24.397Z,24.30
2018-07-22T07:19:30.055Z,24.60
2018-07-22T07:24:33.394Z,24.90
2018-07-22T07:29:36.798Z,25.10
2018-07-22T07:34:40.282Z,25.10
2018-07-22T07:39:43.318Z,25.40
2018-07-22T07:44:46.764Z,25.70
2018-07-22T07:49:49.939Z,25.60
2018-07-22T07:54:53.082Z,25.70
2018-07-22T07:59:56.126Z,25.70
2018-07-22T08:04:59.212Z,25.70
2018-07-22T08:10:02.298Z,25.90
2018-07-22T08:15:05.770Z,26.10
2018-07-22T08:20:08.806Z,26.20
2018-07-22T08:25:11.851Z,26.30
2018-07-22T08:30:14.914Z,26.40
2018-07-22T08:35:17.967Z,26.80
2018-07-22T08:40:20.983Z,27.00
2018-07-22T08:45:24.081Z,27.30
2018-07-22T08:50:27.094Z,27.40
2018-07-22T08:55:30.139Z,27.60
2018-07-22T09:00:33.178Z,27.60
2018-07-22T09:05:36.290Z,27.60
2018-07-22T09:10:39.297Z,27.70
2018-07-22T09:15:42.384Z,27.50
2018-07-22T09:20:45.609Z,27.40
2018-07-22T09:25:48.606Z,27.80
2018-07-22T09:30:51.630Z,28.50
2018-07-22T09:35:54.670Z,28.80
2018-07-22T09:40:57.622Z,29.00
2018-07-22T09:46:00.635Z,29.40
2018-07-22T09:51:03.637Z,28.90
2018-07-22T09:56:06.678Z,28.90
2018-07-22T10:01:09.714Z,29.10
2018-07-22T10:06:12.745Z,28.80
2018-07-22T10:11:15.785Z,28.80
2018-07-22T10:16:18.905Z,28.60
2018-07-22T10:21:24.900Z,27.70
2018-07-22T10:26:28.137Z,28.40
2018-07-22T10:31:31.130Z,29.40
2018-07-22T10:36:34.142Z,29.50
2018-07-22T10:41:37.194Z,29.00
2018-07-22T10:46:40.247Z,28.80
2018-07-22T10:51:43.248Z,28.30
2018-07-22T11:01:49.515Z,28.90
2018-07-22T11:06:52.578Z,28.80
2018-07-22T11:11:55.627Z,28.30
2018-07-22T11:16:58.630Z,28.30
2018-07-22T11:22:01.672Z,28.30
2018-07-22T11:27:04.762Z,28.40
2018-07-22T11:32:08.218Z,28.50
2018-07-22T11:37:11.258Z,28.70
2018-07-22T11:42:14.278Z,28.60
2018-07-22T11:47:17.280Z,28.80
2018-07-22T11:52:20.281Z,28.70
2018-07-22T11:57:23.457Z,28.30
2018-07-22T12:02:26.503Z,27.80
2018-07-22T12:07:29.864Z,27.70
2018-07-22T12:12:33.021Z,27.60
2018-07-22T12:22:39.323Z,28.10
2018-07-22T12:27:42.403Z,27.90
2018-07-22T12:32:45.454Z,28.20
2018-07-22T12:37:48.498Z,28.20
2018-07-22T12:42:51.515Z,28.00
2018-07-22T12:47:54.517Z,27.60
2018-07-22T12:52:57.744Z,27.60
2018-07-22T12:58:00.825Z,28.10
2018-07-22T13:03:03.839Z,28.50
2018-07-22T13:08:07.104Z,28.70
2018-07-22T13:13:10.194Z,28.40
2018-07-22T13:18:13.230Z,28.50
2018-07-22T13:23:16.279Z,28.70
2018-07-22T13:28:19.315Z,28.60
2018-07-22T13:33:22.357Z,28.70
2018-07-22T13:38:25.574Z,29.00
2018-07-22T13:43:28.498Z,29.00
2018-07-22T13:48:31.545Z,29.00
2018-07-22T13:53:34.554Z,29.30
2018-07-22T13:58:37.626Z,29.40
2018-07-22T14:03:40.703Z,29.30
2018-07-22T14:08:43.738Z,28.80
2018-07-22T14:13:46.879Z,29.70
2018-07-22T14:18:49.909Z,29.80
2018-07-22T14:23:52.956Z,30.10
2018-07-22T14:28:55.956Z,29.90
2018-07-22T14:33:58.991Z,30.00
2018-07-22T14:39:02.046Z,30.90
2018-07-22T14:44:05.063Z,32.00
2018-07-22T14:49:08.199Z,31.80
2018-07-22T14:54:11.291Z,30.80
2018-07-22T14:59:14.334Z,29.70
2018-07-22T15:04:17.425Z,29.40
2018-07-22T15:09:20.450Z,29.30
2018-07-22T15:14:23.498Z,29.00
2018-07-22T15:19:26.513Z,28.70
2018-07-22T15:24:29.762Z,28.60
2018-07-22T15:29:32.892Z,28.30
2018-07-22T15:34:36.118Z,28.20
2018-07-22T15:39:39.150Z,28.30
2018-07-22T15:44:42.350Z,28.40
2018-07-22T15:49:45.343Z,28.30
2018-07-22T15:54:48.454Z,28.10
2018-07-22T15:59:51.454Z,28.10
2018-07-22T16:04:54.607Z,28.10
2018-07-22T16:09:57.657Z,28.10
2018-07-22T16:15:00.784Z,28.30
2018-07-22T16:20:03.854Z,28.50
2018-07-22T16:25:06.966Z,28.50
2018-07-22T16:30:09.975Z,28.50
2018-07-22T16:35:13.028Z,28.80
2018-07-22T16:40:16.087Z,29.20
2018-07-22T16:45:19.199Z,29.30
2018-07-22T16:50:22.233Z,29.40
2018-07-22T16:55:25.294Z,29.10
2018-07-22T17:00:28.303Z,29.40
2018-07-22T17:05:31.335Z,29.70
2018-07-22T17:10:34.846Z,29.50
2018-07-22T17:15:37.878Z,29.20
2018-07-22T17:20:40.964Z,29.20
2018-07-22T17:25:44.034Z,29.10
2018-07-22T17:30:47.179Z,28.90
2018-07-22T17:35:50.293Z,28.80
2018-07-22T17:40:53.458Z,28.70
2018-07-22T17:45:56.520Z,28.60
2018-07-22T17:50:59.674Z,28.40
2018-07-22T17:56:02.687Z,28.30
2018-07-22T18:01:05.786Z,28.50
2018-07-22T18:06:08.876Z,28.70
2018-07-22T18:11:12.878Z,28.50
2018-07-22T18:16:15.924Z,28.30
2018-07-22T18:21:19.359Z,28.10
2018-07-22T18:26:22.663Z,27.90
2018-07-22T18:31:25.703Z,27.80
2018-07-22T18:36:28.783Z,27.80
2018-07-22T18:41:31.918Z,27.60
2018-07-22T18:46:35.273Z,27.60
2018-07-22T18:51:38.330Z,27.50
2018-07-22T18:56:41.353Z,27.30
2018-07-22T19:01:44.491Z,27.00
2018-07-22T19:06:47.558Z,26.80
2018-07-22T19:11:50.642Z,26.60
2018-07-22T19:16:53.736Z,26.40
2018-07-22T19:21:56.897Z,26.20
2018-07-22T19:27:00.003Z,26.10
2018-07-22T19:32:03.104Z,25.90
2018-07-22T19:37:06.201Z,25.80
2018-07-22T19:42:09.263Z,25.70
2018-07-22T19:47:12.417Z,25.60
2018-07-22T19:52:15.605Z,25.40
2018-07-22T19:57:18.725Z,25.30
2018-07-22T20:02:21.801Z,25.20
2018-07-22T20:07:24.825Z,25.20
2018-07-22T20:12:27.973Z,25.10
2018-07-22T20:17:30.988Z,25.10
2018-07-22T20:22:34.046Z,25.00
2018-07-22T20:27:37.110Z,25.00
2018-07-22T20:32:40.215Z,24.90
2018-07-22T20:37:43.252Z,24.80
2018-07-22T20:42:46.366Z,24.60
2018-07-22T20:47:49.379Z,24.60
2018-07-22T20:52:52.424Z,24.60
2018-07-22T20:57:55.435Z,24.50
2018-07-22T21:08:01.415Z,24.40
2018-07-22T21:13:11.851Z,24.40
2018-07-22T21:18:14.870Z,24.40
2018-07-22T21:23:18.251Z,24.40
2018-07-22T21:28:21.784Z,24.30
2018-07-22T21:33:25.194Z,24.20
2018-07-22T21:38:28.307Z,24.10
2018-07-22T21:43:31.336Z,24.00
2018-07-22T21:48:34.338Z,24.00
2018-07-22T21:53:37.375Z,23.90
2018-07-22T21:58:40.426Z,23.90
2018-07-22T22:03:43.435Z,23.80
2018-07-22T22:08:47.412Z,23.60
2018-07-22T22:13:50.458Z,23.60
2018-07-22T22:18:53.490Z,23.50
2018-07-22T22:23:56.644Z,23.30
2018-07-22T22:28:59.761Z,23.20
2018-07-22T22:34:02.887Z,23.10
2018-07-22T22:39:11.727Z,23.00
2018-07-22T22:44:14.869Z,23.00
2018-07-22T22:49:17.933Z,22.80
2018-07-22T22:54:21.022Z,22.70
2018-07-22T22:59:24.465Z,22.70
2018-07-22T23:04:27.497Z,22.60
2018-07-22T23:09:30.530Z,22.60
2018-07-22T23:14:33.678Z,22.50
2018-07-22T23:19:36.734Z,22.50
2018-07-22T23:24:39.851Z,22.40
2018-07-22T23:29:42.876Z,22.30
2018-07-22T23:34:45.984Z,22.20
2018-07-22T23:39:49.008Z,22.10
2018-07-22T23:44:52.096Z,22.10
2018-07-22T23:49:55.171Z,22.00
2018-07-22T23:54:58.311Z,21.90
